sensor_id;sensor_type;location;lat;lon;timestamp;P1;durP1;ratioP1;P2;durP2;ratioP2
42118;SDS011;27783;42.782;23.274;2022-09-13T00:01:20;3.72;;;3.42;;
42118;SDS011;27783;42.782;23.274;2022-09-13T00:03:46;4.15;;;3.75;;
42118;SDS011;27783;42.782;23.274;2022-09-13T00:06:12;3.20;;;2.90;;
42118;SDS011;27783;42.782;23.274;2022-09-13T00:08:40;3.85;;;3.55;;
42118;SDS011;27783;42.782;23.274;2022-09-13T00:11:06;3.00;;;2.80;;
42118;SDS011;27783;42.782;23.274;2022-09-13T00:13:40;4.03;;;3.22;;
42118;SDS011;27783;42.782;23.274;2022-09-13T00:16:11;3.50;;;3.22;;
42118;SDS011;27783;42.782;23.274;2022-09-13T00:18:39;6.15;;;3.03;;
42118;SDS011;27783;42.782;23.274;2022-09-13T00:21:07;3.78;;;3.50;;
42118;SDS011;27783;42.782;23.274;2022-09-13T00:23:49;3.97;;;3.05;;
42118;SDS011;27783;42.782;23.274;2022-09-13T00:26:18;3.28;;;2.80;;
42118;SDS011;27783;42.782;23.274;2022-09-13T00:29:06;3.85;;;3.40;;
42118;SDS011;27783;42.782;23.274;2022-09-13T00:31:33;3.83;;;3.53;;
42118;SDS011;27783;42.782;23.274;2022-09-13T00:34:00;3.50;;;3.20;;
42118;SDS011;27783;42.782;23.274;2022-09-13T00:36:26;3.53;;;3.33;;
42118;SDS011;27783;42.782;23.274;2022-09-13T00:38:53;4.03;;;2.70;;
42118;SDS011;27783;42.782;23.274;2022-09-13T00:41:18;3.72;;;3.42;;
42118;SDS011;27783;42.782;23.274;2022-09-13T00:43:50;3.63;;;3.30;;
42118;SDS011;27783;42.782;23.274;2022-09-13T00:46:23;5.45;;;2.40;;
42118;SDS011;27783;42.782;23.274;2022-09-13T00:49:02;3.97;;;2.93;;
42118;SDS011;27783;42.782;23.274;2022-09-13T00:51:56;4.68;;;3.67;;
42118;SDS011;27783;42.782;23.274;2022-09-13T00:54:26;3.42;;;3.10;;
42118;SDS011;27783;42.782;23.274;2022-09-13T00:56:57;5.30;;;3.28;;
42118;SDS011;27783;42.782;23.274;2022-09-13T00:59:33;3.35;;;3.05;;
42118;SDS011;27783;42.782;23.274;2022-09-13T01:02:09;4.50;;;3.00;;
42118;SDS011;27783;42.782;23.274;2022-09-13T01:04:35;3.50;;;3.20;;
42118;SDS011;27783;42.782;23.274;2022-09-13T01:07:07;3.05;;;2.75;;
42118;SDS011;27783;42.782;23.274;2022-09-13T01:09:35;3.00;;;2.70;;
42118;SDS011;27783;42.782;23.274;2022-09-13T01:14:43;3.85;;;3.55;;
42118;SDS011;27783;42.782;23.274;2022-09-13T01:19:37;4.30;;;3.70;;
42118;SDS011;27783;42.782;23.274;2022-09-13T01:30:21;3.97;;;3.58;;
42118;SDS011;27783;42.782;23.274;2022-09-13T01:35:37;5.07;;;3.50;;
42118;SDS011;27783;42.782;23.274;2022-09-13T01:38:12;4.03;;;3.67;;
42118;SDS011;27783;42.782;23.274;2022-09-13T01:46:16;3.95;;;3.55;;
42118;SDS011;27783;42.782;23.274;2022-09-13T01:52:20;6.07;;;3.00;;
42118;SDS011;27783;42.782;23.274;2022-09-13T01:54:57;3.63;;;3.30;;
42118;SDS011;27783;42.782;23.274;2022-09-13T01:57:54;6.35;;;3.75;;
42118;SDS011;27783;42.782;23.274;2022-09-13T02:01:00;3.30;;;3.08;;
42118;SDS011;27783;42.782;23.274;2022-09-13T02:03:54;3.72;;;3.15;;
42118;SDS011;27783;42.782;23.274;2022-09-13T02:09:33;3.60;;;3.30;;
42118;SDS011;27783;42.782;23.274;2022-09-13T02:12:15;4.20;;;3.30;;
42118;SDS011;27783;42.782;23.274;2022-09-13T02:15:01;4.05;;;3.35;;
42118;SDS011;27783;42.782;23.274;2022-09-13T02:17:40;4.03;;;3.53;;
42118;SDS011;27783;42.782;23.274;2022-09-13T02:20:25;4.68;;;2.95;;
42118;SDS011;27783;42.782;23.274;2022-09-13T02:22:57;5.93;;;3.00;;
42118;SDS011;27783;42.782;23.274;2022-09-13T02:25:33;4.68;;;4.22;;
42118;SDS011;27783;42.782;23.274;2022-09-13T02:28:18;5.38;;;3.80;;
42118;SDS011;27783;42.782;23.274;2022-09-13T02:30:50;7.55;;;4.13;;
42118;SDS011;27783;42.782;23.274;2022-09-13T02:33:25;6.18;;;4.30;;
42118;SDS011;27783;42.782;23.274;2022-09-13T02:35:59;4.32;;;4.03;;
42118;SDS011;27783;42.782;23.274;2022-09-13T02:38:32;4.82;;;3.50;;
42118;SDS011;27783;42.782;23.274;2022-09-13T02:44:34;5.35;;;4.30;;
42118;SDS011;27783;42.782;23.274;2022-09-13T02:50:09;3.60;;;3.33;;
42118;SDS011;27783;42.782;23.274;2022-09-13T02:55:37;3.88;;;3.28;;
42118;SDS011;27783;42.782;23.274;2022-09-13T02:58:08;4.03;;;3.63;;
42118;SDS011;27783;42.782;23.274;2022-09-13T03:00:50;9.80;;;4.47;;
42118;SDS011;27783;42.782;23.274;2022-09-13T03:03:16;8.50;;;4.78;;
42118;SDS011;27783;42.782;23.274;2022-09-13T03:05:43;7.20;;;4.13;;
42118;SDS011;27783;42.782;23.274;2022-09-13T03:08:09;4.65;;;4.25;;
42118;SDS011;27783;42.782;23.274;2022-09-13T03:19:35;4.93;;;3.40;;
42118;SDS011;27783;42.782;23.274;2022-09-13T03:30:57;8.15;;;6.95;;
42118;SDS011;27783;42.782;23.274;2022-09-13T03:33:55;8.20;;;7.40;;
42118;SDS011;27783;42.782;23.274;2022-09-13T03:37:09;8.15;;;7.45;;
42118;SDS011;27783;42.782;23.274;2022-09-13T03:42:19;7.25;;;6.13;;
42118;SDS011;27783;42.782;23.274;2022-09-13T03:45:23;5.10;;;4.40;;
42118;SDS011;27783;42.782;23.274;2022-09-13T03:48:01;7.13;;;5.05;;
42118;SDS011;27783;42.782;23.274;2022-09-13T03:50:44;5.75;;;4.40;;
42118;SDS011;27783;42.782;23.274;2022-09-13T03:53:11;4.70;;;3.80;;
42118;SDS011;27783;42.782;23.274;2022-09-13T03:55:41;5.57;;;4.65;;
42118;SDS011;27783;42.782;23.274;2022-09-13T03:58:15;4.93;;;3.83;;
42118;SDS011;27783;42.782;23.274;2022-09-13T04:00:43;5.47;;;4.25;;
42118;SDS011;27783;42.782;23.274;2022-09-13T04:03:11;6.97;;;4.72;;
42118;SDS011;27783;42.782;23.274;2022-09-13T04:05:45;8.77;;;4.38;;
42118;SDS011;27783;42.782;23.274;2022-09-13T04:08:11;6.57;;;5.30;;
42118;SDS011;27783;42.782;23.274;2022-09-13T04:10:37;6.57;;;4.40;;
42118;SDS011;27783;42.782;23.274;2022-09-13T04:13:03;6.20;;;5.10;;
42118;SDS011;27783;42.782;23.274;2022-09-13T04:15:29;5.78;;;4.07;;
42118;SDS011;27783;42.782;23.274;2022-09-13T04:17:55;4.57;;;4.18;;
42118;SDS011;27783;42.782;23.274;2022-09-13T04:20:21;5.65;;;5.15;;
42118;SDS011;27783;42.782;23.274;2022-09-13T04:22:53;6.65;;;4.53;;
42118;SDS011;27783;42.782;23.274;2022-09-13T04:25:20;7.97;;;4.18;;
42118;SDS011;27783;42.782;23.274;2022-09-13T04:27:47;4.63;;;3.95;;
42118;SDS011;27783;42.782;23.274;2022-09-13T04:30:13;6.05;;;3.97;;
42118;SDS011;27783;42.782;23.274;2022-09-13T04:32:42;6.20;;;4.07;;
42118;SDS011;27783;42.782;23.274;2022-09-13T04:35:10;4.70;;;4.30;;
42118;SDS011;27783;42.782;23.274;2022-09-13T04:37:35;5.90;;;5.10;;
42118;SDS011;27783;42.782;23.274;2022-09-13T04:40:03;7.10;;;4.95;;
42118;SDS011;27783;42.782;23.274;2022-09-13T04:42:32;6.70;;;5.22;;
42118;SDS011;27783;42.782;23.274;2022-09-13T04:44:59;6.65;;;4.53;;
42118;SDS011;27783;42.782;23.274;2022-09-13T04:47:25;10.07;;;4.25;;
42118;SDS011;27783;42.782;23.274;2022-09-13T04:49:53;21.98;;;5.95;;
42118;SDS011;27783;42.782;23.274;2022-09-13T04:52:19;16.20;;;6.65;;
42118;SDS011;27783;42.782;23.274;2022-09-13T04:54:45;7.80;;;4.47;;
42118;SDS011;27783;42.782;23.274;2022-09-13T04:57:13;12.25;;;4.85;;
42118;SDS011;27783;42.782;23.274;2022-09-13T04:59:41;8.73;;;5.75;;
42118;SDS011;27783;42.782;23.274;2022-09-13T05:02:07;5.70;;;4.05;;
42118;SDS011;27783;42.782;23.274;2022-09-13T05:04:33;5.50;;;4.38;;
42118;SDS011;27783;42.782;23.274;2022-09-13T05:06:58;6.35;;;4.25;;
42118;SDS011;27783;42.782;23.274;2022-09-13T05:09:24;5.95;;;4.40;;
42118;SDS011;27783;42.782;23.274;2022-09-13T05:11:49;8.57;;;4.88;;
42118;SDS011;27783;42.782;23.274;2022-09-13T05:14:15;8.05;;;4.78;;
42118;SDS011;27783;42.782;23.274;2022-09-13T05:16:41;10.57;;;4.38;;
42118;SDS011;27783;42.782;23.274;2022-09-13T05:19:07;6.32;;;4.43;;
42118;SDS011;27783;42.782;23.274;2022-09-13T05:21:34;10.93;;;4.53;;
42118;SDS011;27783;42.782;23.274;2022-09-13T05:24:01;8.10;;;4.55;;
42118;SDS011;27783;42.782;23.274;2022-09-13T05:26:28;5.03;;;4.55;;
42118;SDS011;27783;42.782;23.274;2022-09-13T05:28:58;7.88;;;4.50;;
42118;SDS011;27783;42.782;23.274;2022-09-13T05:31:35;4.18;;;3.80;;
42118;SDS011;27783;42.782;23.274;2022-09-13T05:34:05;7.45;;;4.63;;
42118;SDS011;27783;42.782;23.274;2022-09-13T05:36:45;4.93;;;3.92;;
42118;SDS011;27783;42.782;23.274;2022-09-13T05:39:13;4.80;;;4.40;;
42118;SDS011;27783;42.782;23.274;2022-09-13T05:41:41;4.57;;;3.50;;
42118;SDS011;27783;42.782;23.274;2022-09-13T05:44:07;4.03;;;3.70;;
42118;SDS011;27783;42.782;23.274;2022-09-13T05:46:33;3.53;;;3.22;;
42118;SDS011;27783;42.782;23.274;2022-09-13T05:49:00;5.55;;;3.88;;
42118;SDS011;27783;42.782;23.274;2022-09-13T05:51:27;5.70;;;4.03;;
42118;SDS011;27783;42.782;23.274;2022-09-13T05:53:52;4.07;;;3.67;;
42118;SDS011;27783;42.782;23.274;2022-09-13T05:56:24;5.75;;;3.55;;
42118;SDS011;27783;42.782;23.274;2022-09-13T05:58:52;5.93;;;3.15;;
42118;SDS011;27783;42.782;23.274;2022-09-13T06:01:24;4.93;;;3.35;;
42118;SDS011;27783;42.782;23.274;2022-09-13T06:03:52;4.65;;;3.25;;
42118;SDS011;27783;42.782;23.274;2022-09-13T06:06:19;4.82;;;3.70;;
42118;SDS011;27783;42.782;23.274;2022-09-13T06:08:47;4.65;;;4.18;;
42118;SDS011;27783;42.782;23.274;2022-09-13T06:11:17;4.70;;;3.97;;
42118;SDS011;27783;42.782;23.274;2022-09-13T06:16:13;3.95;;;3.58;;
42118;SDS011;27783;42.782;23.274;2022-09-13T06:18:48;3.88;;;3.47;;
42118;SDS011;27783;42.782;23.274;2022-09-13T06:21:17;4.65;;;3.42;;
42118;SDS011;27783;42.782;23.274;2022-09-13T06:23:53;5.97;;;3.20;;
42118;SDS011;27783;42.782;23.274;2022-09-13T06:26:20;6.32;;;3.85;;
42118;SDS011;27783;42.782;23.274;2022-09-13T06:28:51;4.00;;;3.60;;
42118;SDS011;27783;42.782;23.274;2022-09-13T06:31:20;9.50;;;8.57;;
42118;SDS011;27783;42.782;23.274;2022-09-13T06:33:53;11.82;;;10.85;;
42118;SDS011;27783;42.782;23.274;2022-09-13T06:36:35;15.02;;;13.93;;
42118;SDS011;27783;42.782;23.274;2022-09-13T06:39:01;15.30;;;13.95;;
42118;SDS011;27783;42.782;23.274;2022-09-13T06:41:29;14.65;;;13.57;;
42118;SDS011;27783;42.782;23.274;2022-09-13T06:43:56;15.52;;;14.40;;
42118;SDS011;27783;42.782;23.274;2022-09-13T06:46:24;20.65;;;17.05;;
42118;SDS011;27783;42.782;23.274;2022-09-13T06:48:53;17.60;;;16.20;;
42118;SDS011;27783;42.782;23.274;2022-09-13T06:51:21;14.48;;;13.35;;
42118;SDS011;27783;42.782;23.274;2022-09-13T06:53:48;17.05;;;15.55;;
42118;SDS011;27783;42.782;23.274;2022-09-13T06:58:46;8.93;;;8.23;;
42118;SDS011;27783;42.782;23.274;2022-09-13T07:03:41;9.30;;;8.55;;
42118;SDS011;27783;42.782;23.274;2022-09-13T07:06:13;9.38;;;8.32;;
42118;SDS011;27783;42.782;23.274;2022-09-13T07:08:55;9.38;;;6.15;;
42118;SDS011;27783;42.782;23.274;2022-09-13T07:11:22;7.32;;;5.55;;
42118;SDS011;27783;42.782;23.274;2022-09-13T07:13:49;5.67;;;5.13;;
42118;SDS011;27783;42.782;23.274;2022-09-13T07:16:16;6.10;;;4.40;;
42118;SDS011;27783;42.782;23.274;2022-09-13T07:18:44;8.40;;;7.43;;
42118;SDS011;27783;42.782;23.274;2022-09-13T07:21:30;12.48;;;11.57;;
42118;SDS011;27783;42.782;23.274;2022-09-13T07:23:57;14.73;;;13.63;;
42118;SDS011;27783;42.782;23.274;2022-09-13T07:26:23;10.63;;;9.73;;
42118;SDS011;27783;42.782;23.274;2022-09-13T07:28:51;9.73;;;9.02;;
42118;SDS011;27783;42.782;23.274;2022-09-13T07:31:26;10.80;;;10.00;;
42118;SDS011;27783;42.782;23.274;2022-09-13T07:34:01;17.17;;;15.63;;
42118;SDS011;27783;42.782;23.274;2022-09-13T07:36:47;9.00;;;8.10;;
42118;SDS011;27783;42.782;23.274;2022-09-13T07:39:15;27.80;;;11.00;;
42118;SDS011;27783;42.782;23.274;2022-09-13T07:41:41;23.42;;;8.18;;
42118;SDS011;27783;42.782;23.274;2022-09-13T07:44:11;22.25;;;8.45;;
42118;SDS011;27783;42.782;23.274;2022-09-13T07:46:37;14.30;;;7.25;;
42118;SDS011;27783;42.782;23.274;2022-09-13T07:49:12;10.48;;;5.88;;
42118;SDS011;27783;42.782;23.274;2022-09-13T07:51:40;13.25;;;5.30;;
42118;SDS011;27783;42.782;23.274;2022-09-13T07:54:15;11.23;;;4.38;;
42118;SDS011;27783;42.782;23.274;2022-09-13T07:56:42;4.70;;;4.40;;
42118;SDS011;27783;42.782;23.274;2022-09-13T07:59:12;5.18;;;3.65;;
42118;SDS011;27783;42.782;23.274;2022-09-13T08:01:40;4.55;;;3.22;;
42118;SDS011;27783;42.782;23.274;2022-09-13T08:04:10;5.57;;;3.30;;
42118;SDS011;27783;42.782;23.274;2022-09-13T08:06:38;5.72;;;2.50;;
42118;SDS011;27783;42.782;23.274;2022-09-13T08:09:06;2.70;;;2.50;;
42118;SDS011;27783;42.782;23.274;2022-09-13T08:11:39;3.65;;;2.95;;
42118;SDS011;27783;42.782;23.274;2022-09-13T08:14:08;5.38;;;2.80;;
42118;SDS011;27783;42.782;23.274;2022-09-13T08:16:48;4.35;;;2.22;;
42118;SDS011;27783;42.782;23.274;2022-09-13T08:19:16;5.47;;;2.60;;
42118;SDS011;27783;42.782;23.274;2022-09-13T08:21:43;8.50;;;2.53;;
42118;SDS011;27783;42.782;23.274;2022-09-13T08:24:14;7.17;;;2.70;;
42118;SDS011;27783;42.782;23.274;2022-09-13T08:26:41;6.35;;;2.08;;
42118;SDS011;27783;42.782;23.274;2022-09-13T08:29:07;3.53;;;1.80;;
42118;SDS011;27783;42.782;23.274;2022-09-13T08:31:34;9.90;;;2.72;;
42118;SDS011;27783;42.782;23.274;2022-09-13T08:33:59;2.75;;;1.98;;
42118;SDS011;27783;42.782;23.274;2022-09-13T08:36:25;10.63;;;2.55;;
42118;SDS011;27783;42.782;23.274;2022-09-13T08:38:53;9.30;;;2.20;;
42118;SDS011;27783;42.782;23.274;2022-09-13T08:41:30;4.55;;;2.33;;
42118;SDS011;27783;42.782;23.274;2022-09-13T08:44:41;5.88;;;2.00;;
42118;SDS011;27783;42.782;23.274;2022-09-13T08:47:25;3.75;;;1.40;;
42118;SDS011;27783;42.782;23.274;2022-09-13T08:50:00;5.10;;;1.58;;
42118;SDS011;27783;42.782;23.274;2022-09-13T08:52:34;4.10;;;1.92;;
42118;SDS011;27783;42.782;23.274;2022-09-13T08:55:24;3.28;;;1.55;;
42118;SDS011;27783;42.782;23.274;2022-09-13T08:57:56;1.85;;;1.30;;
42118;SDS011;27783;42.782;23.274;2022-09-13T09:03:13;1.85;;;1.48;;
42118;SDS011;27783;42.782;23.274;2022-09-13T09:05:49;1.42;;;1.33;;
42118;SDS011;27783;42.782;23.274;2022-09-13T09:11:34;1.67;;;1.55;;
42118;SDS011;27783;42.782;23.274;2022-09-13T09:14:34;2.10;;;1.40;;
42118;SDS011;27783;42.782;23.274;2022-09-13T09:17:04;2.92;;;1.00;;
42118;SDS011;27783;42.782;23.274;2022-09-13T09:19:41;2.55;;;1.05;;
42118;SDS011;27783;42.782;23.274;2022-09-13T09:22:17;1.15;;;1.05;;
42118;SDS011;27783;42.782;23.274;2022-09-13T09:24:50;1.58;;;1.00;;
42118;SDS011;27783;42.782;23.274;2022-09-13T09:27:20;2.67;;;1.38;;
42118;SDS011;27783;42.782;23.274;2022-09-13T09:29:46;1.40;;;1.00;;
42118;SDS011;27783;42.782;23.274;2022-09-13T09:35:28;1.20;;;1.10;;
42118;SDS011;27783;42.782;23.274;2022-09-13T09:40:48;1.23;;;1.00;;
42118;SDS011;27783;42.782;23.274;2022-09-13T09:43:19;2.90;;;1.42;;
42118;SDS011;27783;42.782;23.274;2022-09-13T09:45:51;2.22;;;1.38;;
42118;SDS011;27783;42.782;23.274;2022-09-13T09:48:20;2.30;;;0.90;;
42118;SDS011;27783;42.782;23.274;2022-09-13T09:50:51;1.33;;;1.13;;
42118;SDS011;27783;42.782;23.274;2022-09-13T09:58:54;1.63;;;0.93;;
42118;SDS011;27783;42.782;23.274;2022-09-13T10:01:41;1.58;;;0.95;;
42118;SDS011;27783;42.782;23.274;2022-09-13T10:06:37;1.30;;;1.13;;
42118;SDS011;27783;42.782;23.274;2022-09-13T10:19:51;1.42;;;1.20;;
42118;SDS011;27783;42.782;23.274;2022-09-13T10:22:27;1.63;;;1.00;;
42118;SDS011;27783;42.782;23.274;2022-09-13T10:24:53;1.40;;;1.30;;
42118;SDS011;27783;42.782;23.274;2022-09-13T10:27:34;1.30;;;1.20;;
42118;SDS011;27783;42.782;23.274;2022-09-13T10:30:04;7.28;;;1.65;;
42118;SDS011;27783;42.782;23.274;2022-09-13T10:32:55;6.15;;;1.50;;
42118;SDS011;27783;42.782;23.274;2022-09-13T10:35:22;1.70;;;1.60;;
42118;SDS011;27783;42.782;23.274;2022-09-13T10:37:48;2.35;;;1.10;;
42118;SDS011;27783;42.782;23.274;2022-09-13T10:42:54;1.40;;;1.30;;
42118;SDS011;27783;42.782;23.274;2022-09-13T10:45:24;2.00;;;1.20;;
42118;SDS011;27783;42.782;23.274;2022-09-13T11:04:32;7.03;;;1.80;;
42118;SDS011;27783;42.782;23.274;2022-09-13T11:07:23;8.38;;;1.83;;
42118;SDS011;27783;42.782;23.274;2022-09-13T11:59:09;4.65;;;1.50;;
42118;SDS011;27783;42.782;23.274;2022-09-13T12:01:44;2.00;;;1.17;;
42118;SDS011;27783;42.782;23.274;2022-09-13T12:04:50;1.75;;;1.00;;
42118;SDS011;27783;42.782;23.274;2022-09-13T12:07:24;1.50;;;1.00;;
42118;SDS011;27783;42.782;23.274;2022-09-13T12:10:05;1.20;;;1.05;;
42118;SDS011;27783;42.782;23.274;2022-09-13T12:12:39;1.90;;;1.58;;
42118;SDS011;27783;42.782;23.274;2022-09-13T12:15:12;4.53;;;1.38;;
42118;SDS011;27783;42.782;23.274;2022-09-13T12:17:51;87.45;;;16.75;;
42118;SDS011;27783;42.782;23.274;2022-09-13T12:22:51;91.20;;;20.08;;
42118;SDS011;27783;42.782;23.274;2022-09-13T12:25:22;87.45;;;17.70;;
42118;SDS011;27783;42.782;23.274;2022-09-13T12:27:58;53.30;;;15.75;;
42118;SDS011;27783;42.782;23.274;2022-09-13T12:30:39;40.72;;;11.23;;
42118;SDS011;27783;42.782;23.274;2022-09-13T12:33:10;32.80;;;9.93;;
42118;SDS011;27783;42.782;23.274;2022-09-13T12:39:27;11.80;;;7.05;;
42118;SDS011;27783;42.782;23.274;2022-09-13T12:50:06;15.95;;;5.88;;
42118;SDS011;27783;42.782;23.274;2022-09-13T13:01:51;12.23;;;5.63;;
42118;SDS011;27783;42.782;23.274;2022-09-13T13:07:27;9.50;;;4.25;;
42118;SDS011;27783;42.782;23.274;2022-09-13T13:09:47;46.95;;;7.82;;
42118;SDS011;27783;42.782;23.274;2022-09-13T13:14:49;16.98;;;3.65;;
42118;SDS011;27783;42.782;23.274;2022-09-13T13:39:08;4.75;;;2.08;;
42118;SDS011;27783;42.782;23.274;2022-09-13T13:41:43;4.72;;;1.85;;
42118;SDS011;27783;42.782;23.274;2022-09-13T13:46:45;4.13;;;2.25;;
42118;SDS011;27783;42.782;23.274;2022-09-13T14:23:49;1.67;;;1.58;;
42118;SDS011;27783;42.782;23.274;2022-09-13T14:26:15;5.88;;;1.83;;
42118;SDS011;27783;42.782;23.274;2022-09-13T14:28:41;1.73;;;1.63;;
42118;SDS011;27783;42.782;23.274;2022-09-13T14:31:13;1.65;;;1.52;;
42118;SDS011;27783;42.782;23.274;2022-09-13T14:33:41;1.67;;;1.65;;
42118;SDS011;27783;42.782;23.274;2022-09-13T14:36:12;5.65;;;5.35;;
42118;SDS011;27783;42.782;23.274;2022-09-13T14:38:49;3.20;;;2.30;;
42118;SDS011;27783;42.782;23.274;2022-09-13T14:41:17;4.45;;;4.15;;
42118;SDS011;27783;42.782;23.274;2022-09-13T14:43:45;2.92;;;2.72;;
42118;SDS011;27783;42.782;23.274;2022-09-13T14:46:20;3.63;;;3.42;;
42118;SDS011;27783;42.782;23.274;2022-09-13T14:49:08;1.85;;;1.23;;
42118;SDS011;27783;42.782;23.274;2022-09-13T14:51:46;0.85;;;0.85;;
42118;SDS011;27783;42.782;23.274;2022-09-13T14:54:20;0.77;;;0.70;;
42118;SDS011;27783;42.782;23.274;2022-09-13T14:57:18;2.10;;;1.17;;
42118;SDS011;27783;42.782;23.274;2022-09-13T14:59:50;2.70;;;1.05;;
42118;SDS011;27783;42.782;23.274;2022-09-13T15:02:36;1.13;;;1.08;;
42118;SDS011;27783;42.782;23.274;2022-09-13T15:05:07;2.33;;;1.00;;
42118;SDS011;27783;42.782;23.274;2022-09-13T15:07:38;3.53;;;1.13;;
42118;SDS011;27783;42.782;23.274;2022-09-13T15:10:15;4.20;;;1.60;;
42118;SDS011;27783;42.782;23.274;2022-09-13T15:20:22;8.88;;;2.20;;
42118;SDS011;27783;42.782;23.274;2022-09-13T15:22:49;7.10;;;2.47;;
42118;SDS011;27783;42.782;23.274;2022-09-13T15:25:18;5.70;;;1.95;;
42118;SDS011;27783;42.782;23.274;2022-09-13T15:27:47;6.03;;;1.65;;
42118;SDS011;27783;42.782;23.274;2022-09-13T15:30:24;4.03;;;1.33;;
42118;SDS011;27783;42.782;23.274;2022-09-13T15:35:39;7.63;;;2.55;;
42118;SDS011;27783;42.782;23.274;2022-09-13T15:40:52;14.77;;;2.97;;
42118;SDS011;27783;42.782;23.274;2022-09-13T15:43:26;15.65;;;3.10;;
42118;SDS011;27783;42.782;23.274;2022-09-13T15:45:51;14.13;;;3.55;;
42118;SDS011;27783;42.782;23.274;2022-09-13T15:48:33;4.63;;;2.05;;
42118;SDS011;27783;42.782;23.274;2022-09-13T15:51:07;8.65;;;2.30;;
42118;SDS011;27783;42.782;23.274;2022-09-13T15:53:33;4.70;;;1.55;;
42118;SDS011;27783;42.782;23.274;2022-09-13T15:56:00;18.20;;;3.25;;
42118;SDS011;27783;42.782;23.274;2022-09-13T15:58:28;42.72;;;6.22;;
42118;SDS011;27783;42.782;23.274;2022-09-13T16:00:53;43.22;;;5.35;;
42118;SDS011;27783;42.782;23.274;2022-09-13T16:03:19;27.80;;;4.88;;
42118;SDS011;27783;42.782;23.274;2022-09-13T16:05:44;21.25;;;3.45;;
42118;SDS011;27783;42.782;23.274;2022-09-13T16:08:10;12.48;;;3.22;;
42118;SDS011;27783;42.782;23.274;2022-09-13T16:10:37;36.22;;;5.75;;
42118;SDS011;27783;42.782;23.274;2022-09-13T16:13:02;28.05;;;4.43;;
42118;SDS011;27783;42.782;23.274;2022-09-13T16:15:29;31.45;;;5.47;;
42118;SDS011;27783;42.782;23.274;2022-09-13T16:17:54;36.92;;;5.40;;
42118;SDS011;27783;42.782;23.274;2022-09-13T16:20:20;25.88;;;3.65;;
42118;SDS011;27783;42.782;23.274;2022-09-13T16:22:45;11.43;;;3.17;;
42118;SDS011;27783;42.782;23.274;2022-09-13T16:25:12;6.95;;;2.33;;
42118;SDS011;27783;42.782;23.274;2022-09-13T16:27:40;6.03;;;2.03;;
42118;SDS011;27783;42.782;23.274;2022-09-13T16:30:08;26.27;;;3.57;;
42118;SDS011;27783;42.782;23.274;2022-09-13T16:32:36;11.70;;;3.00;;
42118;SDS011;27783;42.782;23.274;2022-09-13T16:35:02;10.48;;;2.70;;
42118;SDS011;27783;42.782;23.274;2022-09-13T16:37:27;20.25;;;3.65;;
42118;SDS011;27783;42.782;23.274;2022-09-13T16:39:54;26.02;;;5.45;;
42118;SDS011;27783;42.782;23.274;2022-09-13T16:42:21;9.90;;;3.83;;
42118;SDS011;27783;42.782;23.274;2022-09-13T16:44:46;9.32;;;3.75;;
42118;SDS011;27783;42.782;23.274;2022-09-13T16:47:12;6.95;;;2.85;;
42118;SDS011;27783;42.782;23.274;2022-09-13T16:49:37;4.75;;;2.28;;
42118;SDS011;27783;42.782;23.274;2022-09-13T16:52:03;14.68;;;2.58;;
42118;SDS011;27783;42.782;23.274;2022-09-13T16:54:29;6.47;;;3.20;;
42118;SDS011;27783;42.782;23.274;2022-09-13T16:56:55;3.80;;;2.63;;
42118;SDS011;27783;42.782;23.274;2022-09-13T16:59:22;5.77;;;1.90;;
42118;SDS011;27783;42.782;23.274;2022-09-13T17:01:47;5.85;;;2.22;;
42118;SDS011;27783;42.782;23.274;2022-09-13T17:04:13;4.65;;;2.50;;
42118;SDS011;27783;42.782;23.274;2022-09-13T17:06:38;4.13;;;2.47;;
42118;SDS011;27783;42.782;23.274;2022-09-13T17:09:04;13.20;;;4.82;;
42118;SDS011;27783;42.782;23.274;2022-09-13T17:11:32;12.82;;;4.32;;
42118;SDS011;27783;42.782;23.274;2022-09-13T17:14:00;15.75;;;3.90;;
42118;SDS011;27783;42.782;23.274;2022-09-13T17:19:00;54.63;;;7.68;;
42118;SDS011;27783;42.782;23.274;2022-09-13T17:21:28;77.25;;;9.52;;
42118;SDS011;27783;42.782;23.274;2022-09-13T17:23:55;38.10;;;6.40;;
42118;SDS011;27783;42.782;23.274;2022-09-13T17:26:21;26.95;;;5.85;;
42118;SDS011;27783;42.782;23.274;2022-09-13T17:28:47;16.83;;;3.83;;
42118;SDS011;27783;42.782;23.274;2022-09-13T17:31:12;20.48;;;4.40;;
42118;SDS011;27783;42.782;23.274;2022-09-13T17:33:38;20.45;;;4.03;;
42118;SDS011;27783;42.782;23.274;2022-09-13T17:36:05;29.13;;;5.90;;
42118;SDS011;27783;42.782;23.274;2022-09-13T17:38:33;20.77;;;4.60;;
42118;SDS011;27783;42.782;23.274;2022-09-13T17:41:04;21.20;;;4.57;;
42118;SDS011;27783;42.782;23.274;2022-09-13T17:43:33;49.95;;;7.75;;
42118;SDS011;27783;42.782;23.274;2022-09-13T17:46:15;36.10;;;6.80;;
42118;SDS011;27783;42.782;23.274;2022-09-13T17:48:45;22.08;;;4.80;;
42118;SDS011;27783;42.782;23.274;2022-09-13T17:51:11;13.95;;;4.10;;
42118;SDS011;27783;42.782;23.274;2022-09-13T17:53:39;11.38;;;3.65;;
42118;SDS011;27783;42.782;23.274;2022-09-13T17:56:06;11.30;;;3.60;;
42118;SDS011;27783;42.782;23.274;2022-09-13T17:58:32;3.72;;;3.20;;
42118;SDS011;27783;42.782;23.274;2022-09-13T18:00:59;7.40;;;3.70;;
42118;SDS011;27783;42.782;23.274;2022-09-13T18:03:28;5.55;;;2.95;;
42118;SDS011;27783;42.782;23.274;2022-09-13T18:05:58;7.40;;;3.25;;
42118;SDS011;27783;42.782;23.274;2022-09-13T18:08:27;4.88;;;3.55;;
42118;SDS011;27783;42.782;23.274;2022-09-13T18:10:53;6.35;;;3.55;;
42118;SDS011;27783;42.782;23.274;2022-09-13T18:13:19;8.32;;;3.92;;
42118;SDS011;27783;42.782;23.274;2022-09-13T18:15:56;4.32;;;3.65;;
42118;SDS011;27783;42.782;23.274;2022-09-13T18:18:26;3.30;;;2.67;;
42118;SDS011;27783;42.782;23.274;2022-09-13T18:20:52;3.75;;;3.50;;
42118;SDS011;27783;42.782;23.274;2022-09-13T18:23:17;3.83;;;3.35;;
42118;SDS011;27783;42.782;23.274;2022-09-13T18:25:54;3.80;;;3.50;;
42118;SDS011;27783;42.782;23.274;2022-09-13T18:28:20;3.08;;;2.83;;
42118;SDS011;27783;42.782;23.274;2022-09-13T18:30:52;14.77;;;4.22;;
42118;SDS011;27783;42.782;23.274;2022-09-13T18:33:18;9.38;;;4.05;;
42118;SDS011;27783;42.782;23.274;2022-09-13T18:35:53;4.47;;;2.85;;
42118;SDS011;27783;42.782;23.274;2022-09-13T18:38:40;6.53;;;3.40;;
42118;SDS011;27783;42.782;23.274;2022-09-13T18:41:20;6.45;;;3.03;;
42118;SDS011;27783;42.782;23.274;2022-09-13T18:43:47;6.88;;;2.97;;
42118;SDS011;27783;42.782;23.274;2022-09-13T18:46:18;3.65;;;2.80;;
42118;SDS011;27783;42.782;23.274;2022-09-13T18:48:48;7.35;;;3.97;;
42118;SDS011;27783;42.782;23.274;2022-09-13T18:51:17;4.60;;;4.10;;
42118;SDS011;27783;42.782;23.274;2022-09-13T18:53:44;8.38;;;5.25;;
42118;SDS011;27783;42.782;23.274;2022-09-13T18:56:11;9.02;;;5.88;;
42118;SDS011;27783;42.782;23.274;2022-09-13T18:58:42;7.85;;;5.55;;
42118;SDS011;27783;42.782;23.274;2022-09-13T19:01:09;8.95;;;7.20;;
42118;SDS011;27783;42.782;23.274;2022-09-13T19:03:50;11.32;;;8.10;;
42118;SDS011;27783;42.782;23.274;2022-09-13T19:06:21;12.48;;;8.18;;
42118;SDS011;27783;42.782;23.274;2022-09-13T19:08:48;11.15;;;8.68;;
42118;SDS011;27783;42.782;23.274;2022-09-13T19:11:15;22.33;;;10.40;;
42118;SDS011;27783;42.782;23.274;2022-09-13T19:13:41;11.07;;;8.38;;
42118;SDS011;27783;42.782;23.274;2022-09-13T19:16:08;15.38;;;9.68;;
42118;SDS011;27783;42.782;23.274;2022-09-13T19:18:36;12.10;;;8.30;;
42118;SDS011;27783;42.782;23.274;2022-09-13T19:21:04;17.67;;;9.43;;
42118;SDS011;27783;42.782;23.274;2022-09-13T19:23:33;15.23;;;9.13;;